Flight Track Log - Related Links

Times and Time Zones

All times are in EDT time to prevent confusion due to time zone crossing. See the AFL150 flight status page for this flight to view local times or setup timezone preferences in your user account.


Time Position Orientation Groundspeed Altitude Reporting Facility
EDT Latitude Longitude Course Direction KTS MPH feet Rate Location/Type
Sun 06:51:00 PM 23.4107 -82.1531 180° South  Level Estimated
Sun 06:52:00 PM 23.3089 -82.2151 180° South  Level Estimated
Sun 06:52:59 PM 26.2550 -82.1530 180° South 437 503 37,000  Level FlightAware ADS-B
Sun 06:53:00 PM 23.2071 -82.2770 180° South  Level Estimated
Sun 06:53:20 PM 26.2098 -82.1606 189° South 444 511 37,000  Level FlightAware ADS-B
Sun 06:54:04 PM 26.1220 -82.1750 188° South 435 501 37,000  Level FlightAware ADS-B
Sun 06:54:50 PM 26.0370 -82.1890 188° South 442 509 37,000  Level FlightAware ADS-B
Sun 06:55:25 PM 25.9610 -82.2020 189° South 442 509 37,000  Level FlightAware ADS-B
Sun 06:56:11 PM 25.8680 -82.2170 188° South 436 502 37,000  Level FlightAware ADS-B
Sun 06:56:46 PM 25.7970 -82.2280 188° South 436 502 37,000  Level FlightAware ADS-B
Sun 06:57:31 PM 25.7040 -82.2440 189° South 437 503 37,000  Level FlightAware ADS-B
Sun 06:58:01 PM 25.6470 -82.2530 188° South 436 502 37,000  Level FlightAware ADS-B
Sun 06:58:54 PM 25.5380 -82.2710 188° South 436 502 37,000  Level FlightAware ADS-B
Sun 06:59:29 PM 25.4630 -82.2830 188° South 437 503 37,000  Level FlightAware ADS-B
Sun 07:00:04 PM 25.3950 -82.2940 188° South 438 504 37,000  Level FlightAware ADS-B
Sun 07:00:39 PM 25.3200 -82.3060 188° South 437 503 37,000  Level FlightAware ADS-B
Sun 07:01:14 PM 25.2480 -82.3180 189° South 438 504 37,000  Level FlightAware ADS-B
Sun 07:01:50 PM 25.1750 -82.3300 188° South 439 505 37,000  Level FlightAware ADS-B
Sun 07:02:24 PM 25.1040 -82.3410 188° South 439 505 37,000  Level FlightAware ADS-B
Sun 07:03:06 PM 25.0330 -82.3520 188° South 439 505 37,000  Level FlightAware ADS-B
Sun 07:03:45 PM 24.9420 -82.3680 189° South 440 506 37,000 -171 Level FlightAware ADS-B
Sun 07:04:16 PM 24.8760 -82.3780 188° South 452 520 36,800 -727 Descending FlightAware ADS-B
Sun 07:04:51 PM 24.8020 -82.3900 188° South 452 520 36,200 -1,200 Descending FlightAware ADS-B
Sun 07:05:36 PM 24.7170 -82.4040 189° South 439 505 35,200 -1,714 Descending FlightAware ADS-B
Sun 07:06:15 PM 24.6330 -82.4180 189° South 438 504 33,800 -1,084 Descending FlightAware ADS-B
Sun 07:06:59 PM 24.5600 -82.4290 188° South 438 504 33,700 -76 Descending FlightAware ADS-B
Sun 07:07:34 PM 24.5000 -82.4380 188° South 438 504 33,700  Level FlightAware ADS-B
Sun 07:08:11 PM 24.4370 -82.4480 188° South 438 504 33,700  Level FlightAware ADS-B
Sun 07:08:45 PM 24.3790 -82.4570 188° South 438 504 33,700  Level FlightAware ADS-B
Sun 07:09:21 PM 24.3180 -82.4660 188° South 438 504 33,700  Level FlightAware ADS-B
Sun 07:09:57 PM 24.2560 -82.4760 188° South 438 504 33,700  Level FlightAware ADS-B
Sun 07:10:33 PM 24.1950 -82.4850 188° South 438 504 33,700  Level FlightAware ADS-B
Sun 07:11:09 PM 24.1330 -82.4950 188° South 438 504 33,700  Level FlightAware ADS-B
Sun 07:11:57 PM 24.0520 -82.5070 188° South 438 504 33,700  Level FlightAware ADS-B
Sun 07:12:34 PM 23.9880 -82.5170 188° South 438 504 33,700  Level FlightAware ADS-B
Sun 07:13:11 PM 23.9250 -82.5270 188° South 438 504 33,700  Level FlightAware ADS-B
Sun 07:13:47 PM 23.8640 -82.5360 188° South 438 504 33,700  Level FlightAware ADS-B
Sun 07:14:22 PM 23.8040 -82.5450 188° South 438 504 33,700  Level FlightAware ADS-B
Sun 07:14:58 PM 23.7430 -82.5550 189° South 438 504 33,700  Level FlightAware ADS-B
Sun 07:15:34 PM 23.6810 -82.5640 188° South 438 504 33,700  Level FlightAware ADS-B
Sun 07:16:10 PM 23.6200 -82.5740 189° South 438 504 33,700  Level FlightAware ADS-B
Sun 07:19:00 PM 23.2985 -82.4898 173° South  Level Estimated
Sun 07:20:00 PM 23.1850 -82.4601 180° South  Level Estimated
Sun 07:21:00 PM 23.0716 -82.4305 170° South  Level Estimated
Sun 07:22:00 PM 22.9891 -82.4091 180° South  Level Estimated
Sun 07:23:00 PM 22.9891 -82.4091 180° South  Level Estimated
Sun 07:24:00 PM 22.9891 -82.4091 180° South  Level Estimated
Sun 07:25:00 PM 22.9891 -82.4091 180° South  Level Estimated
Sun 07:26:00 PM 22.9891 -82.4091 180° South  Level Estimated
Sun 07:27:00 PM 22.9891 -82.4091 180° South  Level Estimated
Sun 07:28:00 PM 22.9891 -82.4091 180° South  Level Estimated
Sun 07:29:00 PM 22.9891 -82.4091 180° South  Level Estimated
Sun 07:30:00 PM 22.9891 -82.4091 180° South  Level Estimated
Sun 07:31:00 PM 22.9891 -82.4091 180° South  Level Estimated
Sun 07:32:00 PM 22.9891 -82.4091 180° South  Level Estimated
Sun 07:33:00 PM 22.9891 -82.4091 180° South  Level Estimated
Sun 07:34:00 PM 22.9891 -82.4091 180° South  Level Estimated
Sun 07:35:00 PM 22.9891 -82.4091 180° South  Level Estimated
Sun 07:36:00 PM 22.9891 -82.4091 180° South  Level Estimated
Sun 07:37:00 PM 22.9891 -82.4091 180° South  Level Estimated
Sun 07:38:00 PM 22.9891 -82.4091 180° South  Level Estimated
Sun 07:39:00 PM 22.9891 -82.4091 180° South  Level Estimated
Sun 07:40:00 PM 22.9891 -82.4091 180° South  Level Estimated

Login

Don't have an account? Register now (free) for customized features, flight alerts, and more!